createdAt,value
2023-02-15T00:04:54.000Z,-0.46
2023-02-15T00:09:53.000Z,-0.46
2023-02-15T00:14:54.000Z,-0.38
2023-02-15T00:19:54.000Z,-0.37
2023-02-15T00:24:54.000Z,0.01
2023-02-15T00:29:54.000Z,-0.28
2023-02-15T00:34:54.000Z,-0.22
2023-02-15T00:39:54.000Z,-0.14
2023-02-15T00:44:54.000Z,-0.25
2023-02-15T00:49:54.000Z,0.02
2023-02-15T00:54:54.000Z,-0.23
2023-02-15T00:59:54.000Z,0.15
2023-02-15T01:04:54.000Z,0.15
2023-02-15T01:09:54.000Z,0.16
2023-02-15T01:14:54.000Z,0.17
2023-02-15T01:19:54.000Z,-0.15
2023-02-15T01:24:54.000Z,0.06
2023-02-15T01:29:54.000Z,-0.45
2023-02-15T01:34:54.000Z,-0.43
2023-02-15T01:39:54.000Z,-0.27
2023-02-15T01:44:54.000Z,-0.31
2023-02-15T01:49:54.000Z,-0.34
2023-02-15T01:54:54.000Z,-0.24
2023-02-15T01:59:54.000Z,-0.24
2023-02-15T02:04:54.000Z,-0.52
2023-02-15T02:09:54.000Z,-0.29
2023-02-15T02:14:54.000Z,-0.25
2023-02-15T02:19:54.000Z,-0.20
2023-02-15T02:25:10.000Z,-0.50
2023-02-15T02:29:54.000Z,-0.60
2023-02-15T02:34:54.000Z,-0.59
2023-02-15T02:39:54.000Z,-0.59
2023-02-15T02:44:54.000Z,-0.57
2023-02-15T02:49:54.000Z,-0.53
2023-02-15T02:54:54.000Z,-0.31
2023-02-15T02:59:54.000Z,-0.30
2023-02-15T03:04:54.000Z,-0.31
2023-02-15T03:09:54.000Z,-0.25
2023-02-15T03:14:54.000Z,-0.24
2023-02-15T03:19:54.000Z,-0.25
2023-02-15T03:24:54.000Z,-0.26
2023-02-15T03:29:54.000Z,-0.25
2023-02-15T03:34:54.000Z,-0.22
2023-02-15T03:39:54.000Z,-0.21
2023-02-15T03:44:54.000Z,-0.13
2023-02-15T03:49:54.000Z,-0.06
2023-02-15T03:54:54.000Z,-0.05
2023-02-15T03:59:54.000Z,-0.06
2023-02-15T04:04:54.000Z,-0.10
2023-02-15T04:09:54.000Z,-0.12
2023-02-15T04:14:54.000Z,-0.09
2023-02-15T04:19:54.000Z,-0.08
2023-02-15T04:24:54.000Z,-0.06
2023-02-15T04:29:54.000Z,-0.05
2023-02-15T04:34:54.000Z,-0.30
2023-02-15T04:39:54.000Z,0.03
2023-02-15T04:44:54.000Z,0.05
2023-02-15T04:49:54.000Z,0.03
2023-02-15T04:54:54.000Z,0.01
2023-02-15T04:59:54.000Z,-0.02
2023-02-15T05:04:54.000Z,-0.03
2023-02-15T05:09:54.000Z,-0.05
2023-02-15T05:14:54.000Z,-0.05
2023-02-15T05:19:54.000Z,-0.01
2023-02-15T05:24:54.000Z,-0.05
2023-02-15T05:29:54.000Z,-0.03
2023-02-15T05:34:54.000Z,-0.06
2023-02-15T05:39:54.000Z,-0.11
2023-02-15T05:44:54.000Z,-0.24
2023-02-15T05:49:54.000Z,-0.57
2023-02-15T05:54:54.000Z,-0.68
2023-02-15T05:59:54.000Z,-0.46
2023-02-15T06:04:54.000Z,-0.44
2023-02-15T06:09:54.000Z,-0.43
2023-02-15T06:14:54.000Z,-0.41
2023-02-15T06:19:54.000Z,-0.39
2023-02-15T06:24:54.000Z,-0.37
2023-02-15T06:29:54.000Z,-0.35
2023-02-15T06:34:54.000Z,-0.66
2023-02-15T06:39:54.000Z,-0.68
2023-02-15T06:44:54.000Z,-0.42
2023-02-15T06:49:54.000Z,-0.45
2023-02-15T06:54:54.000Z,-0.52
2023-02-15T06:59:54.000Z,-0.83
2023-02-15T07:04:54.000Z,-0.51
2023-02-15T07:09:54.000Z,-0.44
2023-02-15T07:14:54.000Z,-0.42
2023-02-15T07:19:54.000Z,-0.54
2023-02-15T07:24:54.000Z,-0.61
2023-02-15T07:29:54.000Z,-0.28
2023-02-15T07:34:54.000Z,-0.22
2023-02-15T07:39:54.000Z,-0.21
2023-02-15T07:44:54.000Z,-0.11
2023-02-15T07:49:54.000Z,-0.10
2023-02-15T07:54:54.000Z,-0.14
2023-02-15T07:59:54.000Z,-0.13
2023-02-15T08:04:54.000Z,-0.09
2023-02-15T08:09:54.000Z,-0.01
2023-02-15T08:14:54.000Z,-0.09
2023-02-15T08:19:54.000Z,-0.36
2023-02-15T08:25:10.000Z,-0.23
2023-02-15T08:29:54.000Z,0.10
2023-02-15T08:34:54.000Z,0.05
2023-02-15T08:39:54.000Z,0.31
2023-02-15T08:44:54.000Z,0.39
2023-02-15T08:49:54.000Z,0.23
2023-02-15T08:54:54.000Z,0.36
2023-02-15T08:59:54.000Z,0.51
2023-02-15T09:04:54.000Z,0.32
2023-02-15T09:09:54.000Z,0.64
2023-02-15T09:14:54.000Z,0.76
2023-02-15T09:19:54.000Z,0.61
2023-02-15T09:25:09.000Z,0.69
2023-02-15T09:30:09.000Z,0.86
2023-02-15T09:34:54.000Z,1.24
2023-02-15T09:39:54.000Z,1.47
2023-02-15T09:44:54.000Z,1.38
2023-02-15T09:49:54.000Z,1.28
2023-02-15T09:54:54.000Z,1.53
2023-02-15T09:59:54.000Z,1.76
2023-02-15T10:04:54.000Z,1.83
2023-02-15T10:09:54.000Z,2.37
2023-02-15T10:14:54.000Z,2.62
2023-02-15T10:19:54.000Z,2.80
2023-02-15T10:24:54.000Z,2.85
2023-02-15T10:29:54.000Z,3.00
2023-02-15T10:34:54.000Z,3.18
2023-02-15T10:39:54.000Z,3.30
2023-02-15T10:44:54.000Z,3.45
2023-02-15T10:49:54.000Z,3.55
2023-02-15T10:54:54.000Z,3.73
2023-02-15T10:59:54.000Z,3.89
2023-02-15T11:04:54.000Z,3.98
2023-02-15T11:09:54.000Z,4.16
2023-02-15T11:14:54.000Z,4.31
2023-02-15T11:19:54.000Z,4.51
2023-02-15T11:24:54.000Z,4.67
2023-02-15T11:29:54.000Z,4.79
2023-02-15T11:34:54.000Z,4.93
2023-02-15T11:39:54.000Z,5.08
2023-02-15T11:44:54.000Z,5.25
2023-02-15T11:49:54.000Z,5.47
2023-02-15T11:54:54.000Z,5.55
2023-02-15T11:59:54.000Z,5.67
2023-02-15T12:04:54.000Z,5.80
2023-02-15T12:09:54.000Z,5.90
2023-02-15T12:14:54.000Z,5.95
2023-02-15T12:19:54.000Z,6.13
2023-02-15T12:24:54.000Z,6.25
2023-02-15T12:29:54.000Z,6.43
2023-02-15T12:34:54.000Z,6.56
2023-02-15T12:39:54.000Z,6.67
2023-02-15T12:44:54.000Z,6.80
2023-02-15T12:49:54.000Z,6.84
2023-02-15T12:54:54.000Z,6.91
2023-02-15T12:59:54.000Z,7.05
2023-02-15T13:04:54.000Z,7.18
2023-02-15T13:09:54.000Z,7.35
2023-02-15T13:14:54.000Z,7.42
2023-02-15T13:19:54.000Z,7.64
2023-02-15T13:24:54.000Z,7.83
2023-02-15T13:29:54.000Z,7.96
2023-02-15T13:34:54.000Z,8.04
2023-02-15T13:39:55.000Z,8.16
2023-02-15T13:44:54.000Z,8.36
2023-02-15T13:49:54.000Z,8.41
2023-02-15T13:54:54.000Z,8.60
2023-02-15T13:59:54.000Z,8.79
2023-02-15T14:04:54.000Z,8.90
2023-02-15T14:09:54.000Z,8.93
2023-02-15T14:14:54.000Z,9.01
2023-02-15T14:19:54.000Z,9.11
2023-02-15T14:24:54.000Z,9.20
2023-02-15T14:29:54.000Z,9.24
2023-02-15T14:34:54.000Z,9.21
2023-02-15T14:39:54.000Z,9.24
2023-02-15T14:44:54.000Z,9.37
2023-02-15T14:49:54.000Z,9.37
2023-02-15T14:54:54.000Z,9.37
2023-02-15T14:59:54.000Z,9.36
2023-02-15T15:04:54.000Z,9.37
2023-02-15T15:09:54.000Z,9.33
2023-02-15T15:14:54.000Z,9.39
2023-02-15T15:19:54.000Z,9.53
2023-02-15T15:24:54.000Z,9.63
2023-02-15T15:29:54.000Z,9.68
2023-02-15T15:34:54.000Z,9.66
2023-02-15T15:39:54.000Z,9.55
2023-02-15T15:44:54.000Z,9.40
2023-02-15T15:49:54.000Z,9.36
2023-02-15T15:54:54.000Z,9.07
2023-02-15T15:59:54.000Z,8.58
2023-02-15T16:04:54.000Z,8.47
2023-02-15T16:09:54.000Z,8.20
2023-02-15T16:14:54.000Z,7.97
2023-02-15T16:19:54.000Z,7.75
2023-02-15T16:24:54.000Z,7.50
2023-02-15T16:29:54.000Z,7.25
2023-02-15T16:34:54.000Z,7.09
2023-02-15T16:39:54.000Z,6.93
2023-02-15T16:44:54.000Z,6.80
2023-02-15T16:49:54.000Z,6.63
2023-02-15T16:54:54.000Z,6.41
2023-02-15T16:59:54.000Z,6.25
2023-02-15T17:04:54.000Z,6.07
2023-02-15T17:09:54.000Z,6.15
2023-02-15T17:14:54.000Z,5.96
2023-02-15T17:19:54.000Z,5.64
2023-02-15T17:24:54.000Z,5.43
2023-02-15T17:29:55.000Z,5.26
2023-02-15T17:34:55.000Z,5.12
2023-02-15T17:39:54.000Z,4.95
2023-02-15T17:44:54.000Z,4.75
2023-02-15T17:49:55.000Z,4.64
2023-02-15T17:54:54.000Z,4.49
2023-02-15T17:59:55.000Z,4.36
2023-02-15T18:04:54.000Z,4.29
2023-02-15T18:09:55.000Z,4.17
2023-02-15T18:14:55.000Z,4.03
2023-02-15T18:19:55.000Z,3.83
2023-02-15T18:24:55.000Z,3.68
2023-02-15T18:29:54.000Z,3.56
2023-02-15T18:34:54.000Z,3.43
2023-02-15T18:39:54.000Z,3.19
2023-02-15T18:44:54.000Z,3.13
2023-02-15T18:49:55.000Z,3.08
2023-02-15T18:54:54.000Z,2.89
2023-02-15T18:59:55.000Z,2.91
2023-02-15T19:04:54.000Z,2.60
2023-02-15T19:09:54.000Z,2.51
2023-02-15T19:14:54.000Z,2.47
2023-02-15T19:19:55.000Z,2.44
2023-02-15T19:24:54.000Z,2.29
2023-02-15T19:29:54.000Z,2.14
2023-02-15T19:34:55.000Z,2.15
2023-02-15T19:39:55.000Z,2.15
2023-02-15T19:44:55.000Z,2.05
2023-02-15T19:49:54.000Z,1.92
2023-02-15T19:54:55.000Z,1.87
2023-02-15T19:59:54.000Z,1.73
2023-02-15T20:04:55.000Z,1.69
2023-02-15T20:09:55.000Z,1.66
2023-02-15T20:14:55.000Z,1.56
2023-02-15T20:19:55.000Z,1.51
2023-02-15T20:24:55.000Z,1.48
2023-02-15T20:29:55.000Z,1.51
2023-02-15T20:34:55.000Z,1.45
2023-02-15T20:39:54.000Z,1.50
2023-02-15T20:44:54.000Z,1.52
2023-02-15T20:49:55.000Z,1.57
2023-02-15T20:54:55.000Z,1.45
2023-02-15T20:59:55.000Z,1.36
2023-02-15T21:04:55.000Z,1.23
2023-02-15T21:09:55.000Z,1.20
2023-02-15T21:14:55.000Z,1.17
2023-02-15T21:19:55.000Z,1.13
2023-02-15T21:24:55.000Z,1.11
2023-02-15T21:29:55.000Z,1.05
2023-02-15T21:34:55.000Z,1.01
2023-02-15T21:39:55.000Z,0.97
2023-02-15T21:44:55.000Z,0.97
2023-02-15T21:49:55.000Z,0.92
2023-02-15T21:54:55.000Z,0.86
2023-02-15T21:59:55.000Z,0.83
2023-02-15T22:04:55.000Z,0.81
2023-02-15T22:09:55.000Z,0.82
2023-02-15T22:14:55.000Z,0.95
2023-02-15T22:19:55.000Z,0.93
2023-02-15T22:24:55.000Z,0.82
2023-02-15T22:29:55.000Z,0.79
2023-02-15T22:34:55.000Z,0.72
2023-02-15T22:39:55.000Z,0.69
2023-02-15T22:44:55.000Z,0.63
2023-02-15T22:49:55.000Z,0.59
2023-02-15T22:54:55.000Z,0.48
2023-02-15T22:59:55.000Z,0.44
2023-02-15T23:04:55.000Z,0.37
2023-02-15T23:09:55.000Z,0.33
2023-02-15T23:14:55.000Z,0.28
2023-02-15T23:19:55.000Z,0.25
2023-02-15T23:24:55.000Z,0.22
2023-02-15T23:29:55.000Z,0.19
2023-02-15T23:34:55.000Z,0.14
2023-02-15T23:39:55.000Z,0.05
2023-02-15T23:44:55.000Z,0.12
2023-02-15T23:49:55.000Z,0.28
2023-02-15T23:54:55.000Z,0.24
2023-02-15T23:59:55.000Z,0.18
